Time;durP1;ratioP1;P1;durP2;ratioP2;P2;SDS_P1;SDS_P2;PMS_P1;PMS_P2;Temp;Humidity;BMP_temperature;BMP_pressure;BME280_temperature;BME280_humidity;BME280_pressure;Samples;Min_cycle;Max_cycle;Signal;HPM_P1;HPM_P2
2022/08/01 00:00:25;;;;;;;2.80;1.48;;;24.50;62.70;;;;;;5113634;28;20502;-80
2022/08/01 00:02:51;;;;;;;2.00;1.27;;;24.50;62.90;;;;;;5081736;28;20035;-80
2022/08/01 00:05:17;;;;;;;1.50;1.40;;;24.40;63.10;;;;;;5091346;28;20031;-81
2022/08/01 00:07:42;;;;;;;3.80;1.73;;;24.40;63.20;;;;;;5094765;28;20077;-81
2022/08/01 00:10:11;;;;;;;1.60;1.38;;;24.30;63.40;;;;;;5088079;28;20115;-82
2022/08/01 00:12:37;;;;;;;5.13;1.50;;;24.30;63.50;;;;;;5075447;28;20473;-83
2022/08/01 00:15:05;;;;;;;3.28;1.60;;;24.30;63.60;;;;;;5074756;28;20028;-82
2022/08/01 00:17:31;;;;;;;2.03;1.15;;;24.30;63.90;;;;;;5111294;28;20031;-81
2022/08/01 00:19:56;;;;;;;1.40;1.10;;;24.20;64.10;;;;;;5113347;28;20482;-81
2022/08/01 00:22:22;;;;;;;2.00;1.30;;;24.20;64.10;;;;;;5094857;28;20396;-80
2022/08/01 00:24:48;;;;;;;1.50;1.17;;;24.20;64.40;;;;;;5113212;28;20380;-80
2022/08/01 00:27:13;;;;;;;1.60;1.40;;;24.10;64.50;;;;;;5078058;28;20031;-80
2022/08/01 00:29:39;;;;;;;2.67;1.20;;;24.10;64.80;;;;;;5091612;28;20150;-80
2022/08/01 00:32:05;;;;;;;1.95;1.50;;;24.10;64.90;;;;;;5080806;28;20031;-80
2022/08/01 00:34:30;;;;;;;2.65;1.60;;;24.00;65.00;;;;;;5085101;28;20059;-80
2022/08/01 00:36:56;;;;;;;1.45;1.30;;;24.00;65.20;;;;;;5079812;28;20028;-80
2022/08/01 00:39:22;;;;;;;1.70;1.15;;;23.90;65.30;;;;;;5108886;28;20042;-80
2022/08/01 00:41:47;;;;;;;2.50;1.70;;;23.90;65.50;;;;;;5093231;28;20028;-80
2022/08/01 00:44:13;;;;;;;2.08;1.60;;;23.80;65.80;;;;;;5086401;28;20056;-82
2022/08/01 00:46:38;;;;;;;3.00;1.45;;;23.80;65.90;;;;;;5085594;28;20024;-79
2022/08/01 00:49:05;;;;;;;1.52;1.20;;;23.80;66.20;;;;;;5095946;28;20031;-79
2022/08/01 00:51:31;;;;;;;2.40;1.27;;;23.80;66.30;;;;;;5081822;28;20542;-80
2022/08/01 00:53:56;;;;;;;4.15;1.63;;;23.80;66.50;;;;;;5111224;28;20028;-80
2022/08/01 00:56:25;;;;;;;3.72;1.73;;;23.70;66.90;;;;;;5086310;28;20034;-84
2022/08/01 00:58:51;;;;;;;2.55;1.45;;;23.70;67.70;;;;;;5103704;28;20113;-84
2022/08/01 01:01:18;;;;;;;2.42;1.40;;;23.70;67.10;;;;;;5078088;28;20027;-84
2022/08/01 01:03:43;;;;;;;2.50;1.30;;;23.70;67.10;;;;;;5078919;28;20085;-83
2022/08/01 01:06:36;;;;;;;3.83;1.50;;;23.70;67.10;;;;;;5077879;28;20119;-82
2022/08/01 01:09:34;;;;;;;1.83;1.38;;;23.70;67.30;;;;;;5077745;28;20093;-78
2022/08/01 01:12:11;;;;;;;2.85;1.67;;;23.70;67.60;;;;;;5067522;28;20066;-80
2022/08/01 01:14:46;;;;;;;1.90;1.05;;;23.60;67.60;;;;;;5105897;28;20024;-84
2022/08/01 01:17:17;;;;;;;3.40;1.60;;;23.60;67.80;;;;;;5093191;28;20085;-84
2022/08/01 01:19:48;;;;;;;1.98;1.25;;;23.50;68.00;;;;;;5100038;28;20020;-80
2022/08/01 01:22:51;;;;;;;1.63;1.48;;;23.50;68.20;;;;;;5107969;28;20119;-81
2022/08/01 01:25:26;;;;;;;2.00;1.50;;;23.50;68.60;;;;;;5094891;28;20025;-81
2022/08/01 01:28:01;;;;;;;2.33;1.48;;;23.50;68.70;;;;;;5092955;28;20422;-82
2022/08/01 01:30:30;;;;;;;1.77;1.30;;;23.40;68.70;;;;;;5105432;28;20020;-82
2022/08/01 01:32:59;;;;;;;3.00;1.63;;;23.40;68.90;;;;;;5102461;28;20028;-82
2022/08/01 01:35:29;;;;;;;2.25;1.48;;;23.40;69.00;;;;;;5095552;28;20024;-82
2022/08/01 01:38:10;;;;;;;1.90;1.35;;;23.40;69.10;;;;;;5077572;28;20384;-82
2022/08/01 01:40:37;;;;;;;1.93;1.70;;;23.40;69.40;;;;;;5088930;28;20064;-83
2022/08/01 01:43:04;;;;;;;2.28;1.30;;;23.40;69.50;;;;;;5113427;28;20257;-79
2022/08/01 01:45:30;;;;;;;1.65;1.42;;;23.30;69.80;;;;;;5098559;28;20024;-80
2022/08/01 01:47:58;;;;;;;4.45;1.45;;;23.30;70.00;;;;;;5096869;28;20047;-80
2022/08/01 01:50:25;;;;;;;1.80;1.38;;;23.30;70.30;;;;;;5087783;28;20101;-81
2022/08/01 01:52:51;;;;;;;1.60;1.20;;;23.30;70.40;;;;;;5108347;28;20027;-80
2022/08/01 01:55:20;;;;;;;2.60;1.38;;;23.30;70.50;;;;;;5080100;28;20063;-81
2022/08/01 01:57:47;;;;;;;1.60;1.30;;;23.30;70.70;;;;;;5098720;28;20100;-81
2022/08/01 02:00:14;;;;;;;1.60;1.30;;;23.20;70.90;;;;;;5088579;28;20057;-81
2022/08/01 02:02:42;;;;;;;1.63;1.27;;;23.20;71.20;;;;;;5106701;28;20028;-80
2022/08/01 02:05:09;;;;;;;4.00;1.77;;;23.10;71.20;;;;;;5080618;28;20426;-80
2022/08/01 02:07:36;;;;;;;3.60;1.30;;;23.10;71.40;;;;;;5111260;28;20035;-81
2022/08/01 02:10:04;;;;;;;1.92;1.63;;;23.10;71.50;;;;;;5076558;28;20109;-79
2022/08/01 02:12:34;;;;;;;2.85;1.33;;;23.10;71.60;;;;;;5105597;28;20474;-81
2022/08/01 02:15:03;;;;;;;2.25;1.70;;;23.10;71.80;;;;;;5097513;28;20024;-78
2022/08/01 02:17:30;;;;;;;2.92;1.48;;;23.10;71.80;;;;;;5102581;28;20057;-81
2022/08/01 02:19:56;;;;;;;2.70;1.45;;;23.10;72.00;;;;;;5097296;28;20031;-81
2022/08/01 02:22:36;;;;;;;2.13;1.67;;;23.00;72.10;;;;;;5115123;28;20062;-81
2022/08/01 02:25:38;;;;;;;2.30;1.60;;;23.00;72.40;;;;;;5096818;28;20023;-80
2022/08/01 02:28:11;;;;;;;3.22;1.67;;;23.00;72.70;;;;;;5090246;28;20032;-83
2022/08/01 02:30:41;;;;;;;3.55;1.77;;;23.00;72.70;;;;;;5106073;28;20055;-84
2022/08/01 02:33:16;;;;;;;2.28;1.50;;;22.90;72.80;;;;;;5115022;28;20050;-84
2022/08/01 02:35:45;;;;;;;3.13;1.70;;;22.90;73.10;;;;;;5093658;28;20082;-84
2022/08/01 02:38:13;;;;;;;2.80;1.30;;;22.90;73.20;;;;;;5083047;28;20476;-84
2022/08/01 02:40:43;;;;;;;3.58;1.40;;;22.90;73.20;;;;;;5085385;28;20032;-85
2022/08/01 02:43:10;;;;;;;2.83;1.70;;;22.90;73.40;;;;;;5091321;28;20041;-83
2022/08/01 02:45:40;;;;;;;3.40;1.30;;;22.90;73.50;;;;;;5077441;28;20024;-79
2022/08/01 02:48:11;;;;;;;1.63;1.50;;;22.90;73.40;;;;;;5086242;28;20024;-79
2022/08/01 02:50:39;;;;;;;2.43;1.50;;;22.90;73.60;;;;;;5114267;28;20469;-79
2022/08/01 02:53:06;;;;;;;2.30;1.50;;;22.90;73.80;;;;;;5113804;28;20043;-80
2022/08/01 02:55:33;;;;;;;2.22;1.48;;;22.90;73.90;;;;;;5114946;28;20023;-82
2022/08/01 02:58:01;;;;;;;3.00;1.63;;;22.90;74.40;;;;;;5096359;28;20637;-79
2022/08/01 03:00:29;;;;;;;2.15;1.70;;;22.80;74.50;;;;;;5097211;28;20027;-82
2022/08/01 03:02:57;;;;;;;2.60;1.60;;;22.80;74.60;;;;;;5082941;28;20028;-81
2022/08/01 03:05:24;;;;;;;4.50;1.58;;;22.70;74.90;;;;;;5092842;28;20027;-81
2022/08/01 03:07:52;;;;;;;2.78;1.50;;;22.70;75.30;;;;;;5091555;28;20020;-82
2022/08/01 03:10:18;;;;;;;2.08;1.77;;;22.70;75.60;;;;;;5101501;28;20035;-81
2022/08/01 03:12:46;;;;;;;4.30;1.88;;;22.60;75.90;;;;;;5083167;28;20027;-81
2022/08/01 03:15:13;;;;;;;2.47;1.48;;;22.60;76.10;;;;;;5075470;28;20031;-82
2022/08/01 03:17:41;;;;;;;2.58;1.60;;;22.50;76.30;;;;;;5095616;28;20425;-80
2022/08/01 03:20:10;;;;;;;2.28;1.60;;;22.50;76.60;;;;;;5095219;28;20426;-81
2022/08/01 03:22:38;;;;;;;3.33;1.83;;;22.50;76.60;;;;;;5103212;28;20103;-81
2022/08/01 03:25:06;;;;;;;2.67;1.70;;;22.50;76.70;;;;;;5074987;28;20046;-81
2022/08/01 03:27:34;;;;;;;1.65;1.52;;;22.60;76.90;;;;;;5095448;28;20032;-80
2022/08/01 03:30:03;;;;;;;2.05;1.50;;;22.60;76.90;;;;;;5089409;28;20533;-78
2022/08/01 03:32:30;;;;;;;2.50;1.60;;;22.60;77.10;;;;;;5103574;28;20032;-80
2022/08/01 03:34:57;;;;;;;2.22;1.58;;;22.60;77.20;;;;;;5114009;28;20024;-81
2022/08/01 03:37:29;;;;;;;3.78;1.60;;;22.60;77.20;;;;;;5095202;28;20422;-81
2022/08/01 03:40:03;;;;;;;4.38;1.70;;;22.60;77.40;;;;;;5095771;28;20039;-81
2022/08/01 03:42:37;;;;;;;2.55;1.80;;;22.60;77.90;;;;;;5094302;28;20050;-80
2022/08/01 03:45:09;;;;;;;2.83;1.60;;;22.50;78.40;;;;;;5098503;28;20028;-78
2022/08/01 03:47:35;;;;;;;2.60;1.63;;;22.50;78.70;;;;;;5094489;28;20028;-81
2022/08/01 03:50:03;;;;;;;1.60;1.50;;;22.50;79.30;;;;;;5112998;28;20040;-79
2022/08/01 03:52:31;;;;;;;2.40;1.70;;;22.40;79.50;;;;;;5103483;28;20032;-80
2022/08/01 03:55:06;;;;;;;2.67;1.65;;;22.40;80.00;;;;;;5089430;28;20073;-83
2022/08/01 03:57:33;;;;;;;3.40;1.67;;;22.40;80.30;;;;;;5079193;28;20031;-82
2022/08/01 04:00:00;;;;;;;3.42;1.70;;;22.30;80.50;;;;;;5106982;28;20036;-78
2022/08/01 04:02:27;;;;;;;2.95;1.60;;;22.30;80.80;;;;;;5084348;28;20052;-82
2022/08/01 04:04:53;;;;;;;2.25;1.50;;;22.30;81.00;;;;;;5100204;28;20089;-81
2022/08/01 04:07:29;;;;;;;4.93;1.63;;;22.30;81.40;;;;;;5092420;28;20036;-81
2022/08/01 04:09:55;;;;;;;2.60;1.50;;;22.30;81.60;;;;;;5075032;28;20039;-81
2022/08/01 04:12:21;;;;;;;2.95;1.80;;;22.30;81.80;;;;;;5082932;28;20023;-82
2022/08/01 04:14:47;;;;;;;5.30;1.50;;;22.30;81.80;;;;;;5082419;28;20457;-81
2022/08/01 04:17:14;;;;;;;2.42;1.60;;;22.30;82.20;;;;;;5108463;28;20047;-81
2022/08/01 04:19:40;;;;;;;3.15;1.80;;;22.30;82.40;;;;;;5092310;28;20073;-81
2022/08/01 04:22:08;;;;;;;3.00;1.40;;;22.30;82.60;;;;;;5099163;28;20023;-81
2022/08/01 04:24:36;;;;;;;1.98;1.58;;;22.30;82.80;;;;;;5117129;28;20028;-82
2022/08/01 04:27:04;;;;;;;1.85;1.63;;;22.30;83.20;;;;;;5084392;28;20030;-78
2022/08/01 04:29:31;;;;;;;4.57;1.60;;;22.30;83.40;;;;;;5095836;28;20161;-81
2022/08/01 04:32:00;;;;;;;3.55;1.77;;;22.20;84.00;;;;;;5102471;28;20039;-82
2022/08/01 04:34:28;;;;;;;5.18;2.10;;;22.20;84.40;;;;;;5099502;28;20487;-81
2022/08/01 04:36:56;;;;;;;3.22;1.50;;;22.20;84.70;;;;;;5085907;28;20039;-81
2022/08/01 04:39:27;;;;;;;2.38;1.58;;;22.20;84.70;;;;;;5095538;28;20036;-81
2022/08/01 04:41:56;;;;;;;5.10;2.50;;;22.20;85.10;;;;;;5097009;28;20039;-81
2022/08/01 04:44:22;;;;;;;5.25;2.33;;;22.20;85.00;;;;;;5098968;28;20031;-80
2022/08/01 04:46:50;;;;;;;2.20;1.42;;;22.30;85.20;;;;;;5099147;28;20027;-80
2022/08/01 04:49:16;;;;;;;3.17;1.63;;;22.30;85.20;;;;;;5116183;28;20032;-80
2022/08/01 04:52:00;;;;;;;3.78;1.98;;;22.30;85.30;;;;;;5090335;28;20039;-81
2022/08/01 04:54:32;;;;;;;4.10;3.15;;;22.30;85.80;;;;;;5096971;28;20020;-81
2022/08/01 04:56:59;;;;;;;2.85;2.28;;;22.30;85.80;;;;;;5082666;28;20024;-80
2022/08/01 04:59:41;;;;;;;3.53;1.77;;;22.30;86.00;;;;;;5096979;28;20039;-81
2022/08/01 05:02:07;;;;;;;2.97;1.75;;;22.30;86.40;;;;;;5077337;28;20443;-79
2022/08/01 05:04:32;;;;;;;2.85;1.80;;;22.20;86.70;;;;;;5098189;28;20023;-80
2022/08/01 05:06:58;;;;;;;4.00;1.85;;;22.30;86.90;;;;;;5113378;28;20043;-80
2022/08/01 05:09:24;;;;;;;2.20;1.40;;;22.30;87.10;;;;;;5089541;28;20028;-82
2022/08/01 05:11:49;;;;;;;8.32;1.75;;;22.30;87.30;;;;;;5111465;28;20385;-80
2022/08/01 05:14:15;;;;;;;4.63;2.03;;;22.40;87.50;;;;;;5095395;28;20035;-81
2022/08/01 05:16:41;;;;;;;5.18;1.92;;;22.40;87.40;;;;;;5107332;28;20120;-81
2022/08/01 05:19:07;;;;;;;6.55;2.00;;;22.30;87.60;;;;;;5093130;28;20027;-82
2022/08/01 05:21:34;;;;;;;2.70;1.95;;;22.30;87.80;;;;;;5095129;28;20054;-81
2022/08/01 05:23:59;;;;;;;2.28;1.58;;;22.30;88.10;;;;;;5099451;28;20027;-78
2022/08/01 05:26:25;;;;;;;4.20;1.75;;;22.30;88.90;;;;;;5113595;28;20470;-82
2022/08/01 05:28:51;;;;;;;5.13;2.33;;;22.20;88.50;;;;;;5097994;28;20024;-81
2022/08/01 05:31:16;;;;;;;4.78;2.17;;;22.30;88.60;;;;;;5082770;28;20035;-82
2022/08/01 05:33:42;;;;;;;3.28;1.70;;;22.30;88.70;;;;;;5083789;28;20023;-79
2022/08/01 05:36:07;;;;;;;2.30;1.70;;;22.30;88.80;;;;;;5107835;28;20103;-79
2022/08/01 05:38:33;;;;;;;3.95;1.65;;;22.30;89.10;;;;;;5079371;28;20555;-80
2022/08/01 05:40:59;;;;;;;3.13;1.70;;;22.30;89.10;;;;;;5094844;28;20134;-78
2022/08/01 05:43:24;;;;;;;3.13;1.60;;;22.30;89.50;;;;;;5093642;28;20469;-78
2022/08/01 05:45:50;;;;;;;3.17;1.60;;;22.20;89.80;;;;;;5092949;28;20016;-79
2022/08/01 05:48:16;;;;;;;2.75;1.83;;;22.30;89.80;;;;;;5106614;28;20080;-78
2022/08/01 05:50:42;;;;;;;3.05;2.15;;;22.30;90.00;;;;;;5089423;28;20103;-79
2022/08/01 05:53:07;;;;;;;3.45;1.75;;;22.30;90.00;;;;;;5089453;28;20031;-78
2022/08/01 05:55:34;;;;;;;3.47;1.70;;;22.40;90.00;;;;;;5097451;28;20416;-79
2022/08/01 05:57:59;;;;;;;3.22;1.40;;;22.40;90.00;;;;;;5093549;28;20044;-79
2022/08/01 06:00:25;;;;;;;2.55;1.73;;;22.50;90.00;;;;;;5085448;28;20065;-79
2022/08/01 06:02:51;;;;;;;2.67;1.60;;;22.50;90.00;;;;;;5094200;28;20054;-80
2022/08/01 06:05:16;;;;;;;3.03;1.63;;;22.60;89.90;;;;;;5111189;28;20063;-80
2022/08/01 06:07:42;;;;;;;1.77;1.48;;;22.60;89.80;;;;;;5091678;28;20058;-80
2022/08/01 06:10:08;;;;;;;3.65;1.60;;;22.70;89.90;;;;;;5090842;28;20032;-80
2022/08/01 06:12:35;;;;;;;1.63;1.52;;;22.70;89.90;;;;;;5078238;28;20069;-80
2022/08/01 06:15:00;;;;;;;3.13;1.60;;;22.70;90.00;;;;;;5079075;28;20381;-80
2022/08/01 06:17:26;;;;;;;1.95;1.40;;;22.60;90.20;;;;;;5101991;28;20043;-80
2022/08/01 06:19:51;;;;;;;2.30;1.40;;;22.60;90.30;;;;;;5079561;28;20430;-80
2022/08/01 06:22:17;;;;;;;3.05;1.30;;;22.70;90.60;;;;;;5096224;28;20589;-80
2022/08/01 06:24:43;;;;;;;2.13;1.38;;;22.70;90.40;;;;;;5115663;28;20046;-80
2022/08/01 06:27:08;;;;;;;4.22;1.42;;;22.70;90.30;;;;;;5083093;28;20120;-81
2022/08/01 06:29:34;;;;;;;3.03;1.67;;;22.80;90.30;;;;;;5076640;28;20031;-80
2022/08/01 06:32:00;;;;;;;3.88;1.33;;;22.90;90.60;;;;;;5081976;28;20019;-80
2022/08/01 06:34:26;;;;;;;3.13;1.60;;;22.90;90.40;;;;;;5096525;28;20107;-80
2022/08/01 06:36:51;;;;;;;2.80;1.83;;;23.00;90.60;;;;;;5097021;28;21168;-81
2022/08/01 06:39:17;;;;;;;3.45;1.75;;;23.00;90.50;;;;;;5113957;28;20513;-80
2022/08/01 06:41:45;;;;;;;4.05;2.00;;;23.10;90.30;;;;;;5112240;28;20035;-81
2022/08/01 06:44:12;;;;;;;3.75;1.42;;;23.20;90.00;;;;;;5106687;28;20107;-80
2022/08/01 06:46:37;;;;;;;1.25;1.10;;;23.20;89.60;;;;;;5087240;28;20039;-81
2022/08/01 06:49:03;;;;;;;4.18;1.73;;;23.30;89.40;;;;;;5099406;28;20024;-81
2022/08/01 06:51:29;;;;;;;3.50;1.73;;;23.30;89.20;;;;;;5093743;28;20396;-81
2022/08/01 06:53:54;;;;;;;4.57;1.20;;;23.40;88.80;;;;;;5093912;28;20032;-81
2022/08/01 06:56:20;;;;;;;1.40;1.10;;;23.40;88.50;;;;;;5111813;28;20023;-81
2022/08/01 06:58:46;;;;;;;8.18;2.80;;;23.50;88.40;;;;;;5093814;28;20035;-81
2022/08/01 07:01:11;;;;;;;5.40;1.80;;;23.60;88.00;;;;;;5093175;28;20035;-80
2022/08/01 07:03:37;;;;;;;2.55;1.63;;;23.70;88.00;;;;;;5091104;28;20056;-81
2022/08/01 07:06:03;;;;;;;6.00;1.98;;;23.60;87.50;;;;;;5093348;28;20055;-81
2022/08/01 07:08:29;;;;;;;2.97;1.30;;;23.60;87.50;;;;;;5093461;28;20202;-81
2022/08/01 07:10:58;;;;;;;4.88;1.40;;;23.60;87.30;;;;;;5093296;28;20039;-81
2022/08/01 07:13:25;;;;;;;1.95;1.10;;;23.60;87.30;;;;;;5091989;28;20023;-79
2022/08/01 07:15:52;;;;;;;2.55;0.93;;;23.60;87.10;;;;;;5110225;28;20120;-80
2022/08/01 07:18:18;;;;;;;3.33;0.85;;;23.60;87.60;;;;;;5089312;28;20028;-81
2022/08/01 07:20:45;;;;;;;1.95;1.10;;;23.70;87.20;;;;;;5084034;28;20111;-81
2022/08/01 07:23:12;;;;;;;2.38;1.17;;;23.80;86.60;;;;;;5092575;28;20023;-80
2022/08/01 07:25:37;;;;;;;1.83;1.00;;;23.80;86.30;;;;;;5093138;28;20449;-81
2022/08/01 07:28:03;;;;;;;0.93;0.40;;;23.80;86.30;;;;;;5088471;28;20051;-81
2022/08/01 07:30:29;;;;;;;0.90;0.43;;;23.80;83.90;;;;;;5095326;28;20107;-81
2022/08/01 07:32:55;;;;;;;7.75;1.20;;;23.80;84.00;;;;;;5095509;28;20056;-81
2022/08/01 07:35:20;;;;;;;4.72;0.95;;;23.90;85.20;;;;;;5077675;28;20036;-81
2022/08/01 07:37:46;;;;;;;2.65;0.90;;;24.00;85.50;;;;;;5079800;28;20032;-81
2022/08/01 07:40:12;;;;;;;1.17;0.82;;;24.10;85.20;;;;;;5095054;28;20032;-79
2022/08/01 07:42:37;;;;;;;2.55;0.70;;;24.10;85.00;;;;;;5103826;28;20069;-79
2022/08/01 07:45:03;;;;;;;0.77;0.60;;;24.10;84.40;;;;;;5111140;28;20028;-79
2022/08/01 07:47:29;;;;;;;1.45;0.90;;;24.20;84.20;;;;;;5092632;28;20032;-79
2022/08/01 07:50:03;;;;;;;0.70;0.65;;;24.20;84.00;;;;;;5077522;28;20361;-80
2022/08/01 07:52:30;;;;;;;1.08;0.70;;;24.30;83.30;;;;;;5094625;28;20111;-80
2022/08/01 07:54:56;;;;;;;1.55;0.90;;;24.50;82.40;;;;;;5093146;28;20076;-80
2022/08/01 07:57:22;;;;;;;1.45;0.68;;;24.60;82.50;;;;;;5092080;28;20055;-81
2022/08/01 07:59:48;;;;;;;3.78;0.90;;;24.70;82.00;;;;;;5095764;28;20031;-80
2022/08/01 08:02:14;;;;;;;2.42;0.90;;;24.70;81.50;;;;;;5080904;28;20443;-80
2022/08/01 08:04:39;;;;;;;2.05;0.98;;;24.70;81.20;;;;;;5082291;28;20020;-80
2022/08/01 08:07:05;;;;;;;1.85;1.00;;;24.80;81.20;;;;;;5115800;28;20462;-80
2022/08/01 08:09:30;;;;;;;2.47;0.80;;;24.80;81.40;;;;;;5090314;28;20032;-80
2022/08/01 08:11:56;;;;;;;3.08;1.10;;;24.70;81.10;;;;;;5108581;28;20035;-80
2022/08/01 08:14:23;;;;;;;2.95;0.93;;;24.80;81.30;;;;;;5090918;28;20039;-80
2022/08/01 08:16:50;;;;;;;1.52;1.02;;;25.00;81.00;;;;;;5086721;28;20052;-80
2022/08/01 08:19:15;;;;;;;1.50;1.08;;;25.10;80.70;;;;;;5090492;28;20031;-80
2022/08/01 08:21:41;;;;;;;1.60;0.73;;;25.20;80.20;;;;;;5115260;28;20376;-80
2022/08/01 08:24:20;;;;;;;2.67;0.80;;;25.20;79.80;;;;;;5104685;28;20078;-80
2022/08/01 08:26:47;;;;;;;2.75;1.27;;;25.30;79.80;;;;;;5086991;28;20031;-80
2022/08/01 08:29:12;;;;;;;2.00;0.88;;;25.40;79.60;;;;;;5104481;28;20460;-81
2022/08/01 08:31:38;;;;;;;2.03;1.13;;;25.40;79.60;;;;;;5089170;28;20089;-80
2022/08/01 08:34:04;;;;;;;1.77;1.20;;;25.40;79.60;;;;;;5089802;28;20031;-80
2022/08/01 08:36:29;;;;;;;2.22;1.30;;;25.50;79.60;;;;;;5106387;28;20140;-80
2022/08/01 08:38:55;;;;;;;1.00;0.77;;;25.40;78.50;;;;;;5086886;28;20055;-80
2022/08/01 08:41:22;;;;;;;1.08;0.60;;;25.40;78.60;;;;;;5086228;28;20047;-80
2022/08/01 08:43:48;;;;;;;1.65;0.77;;;25.40;78.60;;;;;;5089775;28;20059;-80
2022/08/01 08:46:14;;;;;;;1.23;0.80;;;25.50;78.50;;;;;;5089525;28;20444;-80
2022/08/01 08:48:41;;;;;;;2.10;0.80;;;25.50;78.30;;;;;;5085458;28;20483;-80
2022/08/01 08:51:10;;;;;;;3.15;0.93;;;25.50;78.50;;;;;;5096904;28;20064;-80
2022/08/01 08:53:38;;;;;;;2.45;0.60;;;25.60;78.70;;;;;;5086977;28;20528;-80
2022/08/01 08:56:07;;;;;;;2.42;0.73;;;25.70;78.70;;;;;;5086371;28;20051;-80
2022/08/01 08:58:37;;;;;;;1.27;0.70;;;25.80;78.70;;;;;;5088349;28;20028;-80
2022/08/01 09:01:06;;;;;;;1.25;0.70;;;25.90;78.40;;;;;;5101995;28;20028;-80
2022/08/01 09:03:32;;;;;;;2.55;0.98;;;26.00;78.10;;;;;;5088703;28;20020;-80
2022/08/01 09:05:58;;;;;;;2.47;0.52;;;26.00;78.10;;;;;;5107528;28;20120;-80
2022/08/01 09:08:23;;;;;;;2.58;0.70;;;25.90;78.30;;;;;;5105719;28;20444;-80
2022/08/01 09:10:49;;;;;;;2.00;0.80;;;25.90;78.30;;;;;;5103427;28;20024;-80
2022/08/01 09:13:15;;;;;;;1.67;0.70;;;26.00;78.10;;;;;;5102725;28;20480;-80
2022/08/01 09:15:44;;;;;;;0.88;0.63;;;26.00;78.30;;;;;;5088751;28;20051;-80
2022/08/01 09:18:30;;;;;;;1.23;0.82;;;26.00;77.20;;;;;;5092997;28;20066;-80
2022/08/01 09:21:17;;;;;;;1.70;0.60;;;26.10;76.80;;;;;;5109281;28;20106;-81
2022/08/01 09:23:53;;;;;;;0.77;0.63;;;26.30;77.00;;;;;;5103569;28;20089;-80
2022/08/01 09:26:21;;;;;;;0.60;0.50;;;26.30;77.10;;;;;;5103794;28;20027;-80
2022/08/01 09:28:48;;;;;;;1.67;0.60;;;26.30;77.40;;;;;;5089434;28;20023;-81
2022/08/01 09:31:18;;;;;;;1.38;0.70;;;26.20;76.50;;;;;;5088449;28;20101;-80
2022/08/01 09:33:52;;;;;;;0.83;0.67;;;26.20;76.30;;;;;;5085246;28;20449;-81
2022/08/01 09:36:20;;;;;;;0.90;0.50;;;26.20;75.60;;;;;;5086025;28;20026;-80
2022/08/01 09:38:46;;;;;;;1.75;0.82;;;26.20;75.60;;;;;;5089124;28;20115;-81
2022/08/01 09:41:11;;;;;;;0.98;0.65;;;26.30;75.50;;;;;;5088613;28;20126;-80
2022/08/01 09:43:38;;;;;;;3.40;0.90;;;26.30;75.60;;;;;;5094155;28;20028;-81
2022/08/01 09:46:13;;;;;;;1.92;0.70;;;26.30;76.10;;;;;;5097242;28;20024;-80
2022/08/01 09:48:58;;;;;;;0.88;0.77;;;26.20;77.00;;;;;;5097299;28;20106;-81
2022/08/01 09:51:31;;;;;;;1.02;0.63;;;26.20;76.70;;;;;;5097896;28;20028;-80
2022/08/01 09:53:56;;;;;;;0.68;0.68;;;26.30;76.40;;;;;;5091570;28;20085;-81
2022/08/01 09:56:22;;;;;;;1.58;0.70;;;26.30;76.60;;;;;;5104052;28;20016;-81
2022/08/01 09:58:56;;;;;;;0.90;0.80;;;26.30;76.80;;;;;;5102464;28;20485;-81
2022/08/01 10:01:23;;;;;;;1.90;0.70;;;26.40;76.60;;;;;;5092776;28;20435;-80
2022/08/01 10:04:16;;;;;;;1.50;1.00;;;26.40;76.30;;;;;;5081472;28;20038;-81
2022/08/01 10:06:45;;;;;;;0.63;0.60;;;26.40;76.30;;;;;;5085392;28;20081;-80
2022/08/01 10:09:14;;;;;;;3.53;0.93;;;26.50;76.20;;;;;;5092326;28;20035;-80
2022/08/01 10:11:42;;;;;;;2.55;0.75;;;26.50;76.00;;;;;;5080130;28;20024;-80
2022/08/01 10:14:08;;;;;;;1.02;0.75;;;26.50;75.90;;;;;;5089183;28;20038;-80
2022/08/01 10:16:38;;;;;;;1.13;0.65;;;26.60;75.60;;;;;;5087371;28;20395;-81
2022/08/01 10:19:07;;;;;;;3.13;0.93;;;26.80;74.50;;;;;;5096477;28;20031;-80
2022/08/01 10:21:34;;;;;;;1.02;0.93;;;26.80;73.90;;;;;;5079703;28;20028;-81
2022/08/01 10:24:03;;;;;;;1.10;0.73;;;26.80;74.20;;;;;;5108505;28;20051;-80
2022/08/01 10:26:33;;;;;;;1.52;0.77;;;26.90;73.90;;;;;;5104558;28;20020;-81
2022/08/01 10:28:59;;;;;;;1.35;0.73;;;27.00;73.80;;;;;;5082666;28;20084;-81
2022/08/01 10:31:25;;;;;;;1.13;0.88;;;27.00;73.80;;;;;;5110245;28;20430;-81
2022/08/01 10:33:52;;;;;;;2.95;0.70;;;26.90;74.30;;;;;;5080516;28;20027;-80
2022/08/01 10:36:20;;;;;;;1.20;0.68;;;26.80;74.60;;;;;;5105718;28;20024;-81
2022/08/01 10:38:46;;;;;;;1.30;0.80;;;26.80;75.00;;;;;;5088388;28;20039;-80
2022/08/01 10:41:16;;;;;;;1.55;0.70;;;26.90;74.70;;;;;;5079828;28;20032;-81
2022/08/01 10:43:42;;;;;;;1.58;0.90;;;26.90;74.30;;;;;;5099180;28;20020;-81
2022/08/01 10:46:09;;;;;;;3.13;1.00;;;27.10;74.10;;;;;;5106865;28;20016;-81
2022/08/01 10:48:53;;;;;;;4.38;1.00;;;27.20;73.90;;;;;;5108568;28;20480;-81
2022/08/01 10:51:21;;;;;;;1.45;0.70;;;27.30;73.50;;;;;;5096084;28;20166;-81
2022/08/01 10:53:52;;;;;;;1.48;1.13;;;27.20;73.50;;;;;;5096241;28;20028;-81
2022/08/01 10:56:18;;;;;;;1.08;0.85;;;27.20;73.60;;;;;;5114042;28;20028;-81
2022/08/01 10:58:46;;;;;;;1.10;0.85;;;27.30;73.60;;;;;;5084413;28;20032;-81
2022/08/01 11:01:15;;;;;;;1.38;0.80;;;27.30;73.20;;;;;;5091465;28;20104;-81
2022/08/01 11:03:58;;;;;;;1.70;1.00;;;27.30;73.10;;;;;;5079032;28;20025;-81
2022/08/01 11:06:36;;;;;;;1.30;0.80;;;27.40;72.90;;;;;;5086274;28;20211;-81
2022/08/01 11:09:05;;;;;;;1.00;0.90;;;27.20;72.50;;;;;;5107983;28;20036;-80
2022/08/01 11:11:31;;;;;;;2.20;1.17;;;27.10;72.90;;;;;;5097071;28;20024;-80
2022/08/01 11:14:21;;;;;;;1.50;0.77;;;27.00;73.10;;;;;;5090420;28;20028;-81
2022/08/01 11:16:48;;;;;;;1.83;0.88;;;26.90;73.60;;;;;;5105072;28;20043;-81
2022/08/01 11:19:14;;;;;;;1.25;0.80;;;26.90;73.60;;;;;;5087951;28;20065;-81
2022/08/01 11:21:52;;;;;;;2.30;0.80;;;26.80;73.70;;;;;;5092348;28;20055;-81
2022/08/01 11:24:45;;;;;;;1.50;0.80;;;26.90;73.60;;;;;;5083131;28;20024;-81
2022/08/01 11:27:17;;;;;;;2.72;0.80;;;27.10;73.30;;;;;;5095065;28;20114;-81
2022/08/01 11:29:43;;;;;;;1.33;0.77;;;27.30;72.90;;;;;;5092482;28;20032;-81
2022/08/01 11:32:26;;;;;;;3.35;0.90;;;27.40;72.30;;;;;;5099748;28;20019;-81
2022/08/01 11:34:54;;;;;;;1.92;1.00;;;27.50;71.40;;;;;;5082068;28;20027;-81
2022/08/01 11:37:27;;;;;;;4.75;2.40;;;27.50;71.10;;;;;;5091433;28;20164;-81
2022/08/01 11:40:18;;;;;;;1.55;1.20;;;27.60;71.10;;;;;;5080401;28;20487;-81
2022/08/01 11:42:43;;;;;;;1.42;1.30;;;27.70;70.50;;;;;;5093840;28;20487;-81
2022/08/01 11:45:09;;;;;;;1.15;0.80;;;27.70;70.20;;;;;;5096829;28;20032;-81
2022/08/01 11:47:51;;;;;;;1.52;0.60;;;27.80;69.80;;;;;;5112306;28;20471;-82
2022/08/01 11:50:32;;;;;;;2.83;1.17;;;27.80;68.90;;;;;;5105363;28;20084;-81
2022/08/01 11:53:03;;;;;;;;;;;28.00;69.10;;;;;;5107748;28;20020;-81
2022/08/01 11:55:29;;;;;;;1.27;0.75;;;28.10;68.70;;;;;;5078743;28;19987;-81
2022/08/01 11:58:13;;;;;;;1.05;0.80;;;28.20;68.90;;;;;;5090264;28;20481;-81
2022/08/01 12:00:38;;;;;;;2.17;0.77;;;28.20;68.50;;;;;;5086594;28;20138;-82
2022/08/01 12:03:06;;;;;;;0.80;0.70;;;28.40;68.80;;;;;;5097755;28;20109;-81
2022/08/01 12:05:34;;;;;;;1.58;0.80;;;28.60;68.80;;;;;;5091518;28;20525;-81
2022/08/01 12:08:00;;;;;;;0.98;0.90;;;28.80;68.00;;;;;;5080553;28;20068;-81
2022/08/01 12:10:36;;;;;;;1.08;0.70;;;28.80;67.30;;;;;;5103511;28;20043;-81
2022/08/01 12:13:04;;;;;;;1.25;0.70;;;28.80;67.60;;;;;;5089076;28;20056;-81
2022/08/01 12:15:35;;;;;;;2.65;0.70;;;28.80;67.10;;;;;;5078044;28;20024;-82
2022/08/01 12:18:05;;;;;;;1.75;1.20;;;28.80;66.60;;;;;;5094840;28;20069;-81
2022/08/01 12:20:39;;;;;;;1.33;0.60;;;28.90;66.40;;;;;;5103089;28;20477;-82
2022/08/01 12:23:09;;;;;;;2.78;1.00;;;29.00;66.10;;;;;;5089643;28;20024;-82
2022/08/01 12:25:35;;;;;;;1.92;0.88;;;29.10;65.80;;;;;;5077905;28;20030;-82
2022/08/01 12:28:03;;;;;;;2.40;0.82;;;29.20;65.30;;;;;;5088497;28;20380;-81
2022/08/01 12:30:30;;;;;;;1.33;0.80;;;29.20;65.40;;;;;;5102960;28;20023;-82
2022/08/01 12:32:57;;;;;;;1.00;0.75;;;29.20;65.30;;;;;;5080883;28;20020;-81
2022/08/01 12:35:25;;;;;;;2.38;0.88;;;29.20;65.50;;;;;;5085581;28;20028;-81
2022/08/01 12:37:52;;;;;;;2.05;0.80;;;29.30;65.40;;;;;;5113020;28;20520;-82
2022/08/01 12:40:20;;;;;;;1.08;0.80;;;29.40;64.70;;;;;;5094723;28;20042;-81
2022/08/01 12:42:51;;;;;;;2.03;0.57;;;29.40;64.20;;;;;;5111208;28;20035;-82
2022/08/01 12:45:39;;;;;;;0.90;0.60;;;29.30;62.70;;;;;;5096595;28;20024;-81
2022/08/01 12:48:11;;;;;;;2.28;0.77;;;29.40;62.60;;;;;;5106895;28;20028;-82
2022/08/01 12:50:42;;;;;;;1.65;0.73;;;29.30;62.70;;;;;;5087975;28;20032;-82
2022/08/01 12:53:09;;;;;;;1.67;0.75;;;29.30;63.30;;;;;;5111474;28;20031;-81
2022/08/01 12:55:45;;;;;;;1.80;0.70;;;29.30;63.50;;;;;;5099454;28;20108;-81